sensor_id;sensor_type;location;lat;lon;timestamp;P1;durP1;ratioP1;P2;durP2;ratioP2
35110;SDS011;21290;50.158;8.658;2023-07-29T00:01:11;12.57;;;8.25;;
35110;SDS011;21290;50.158;8.658;2023-07-29T00:03:38;10.18;;;7.93;;
35110;SDS011;21290;50.158;8.658;2023-07-29T00:06:04;9.38;;;8.23;;
35110;SDS011;21290;50.158;8.658;2023-07-29T00:08:31;14.13;;;8.55;;
35110;SDS011;21290;50.158;8.658;2023-07-29T00:10:58;11.80;;;8.43;;
35110;SDS011;21290;50.158;8.658;2023-07-29T00:13:24;16.17;;;9.07;;
35110;SDS011;21290;50.158;8.658;2023-07-29T00:15:53;13.50;;;8.90;;
35110;SDS011;21290;50.158;8.658;2023-07-29T00:18:22;14.82;;;9.13;;
35110;SDS011;21290;50.158;8.658;2023-07-29T00:20:49;10.73;;;8.57;;
35110;SDS011;21290;50.158;8.658;2023-07-29T00:23:17;15.10;;;8.55;;
35110;SDS011;21290;50.158;8.658;2023-07-29T00:25:45;10.98;;;8.82;;
35110;SDS011;21290;50.158;8.658;2023-07-29T00:28:12;13.00;;;8.85;;
35110;SDS011;21290;50.158;8.658;2023-07-29T00:30:39;13.52;;;9.27;;
35110;SDS011;21290;50.158;8.658;2023-07-29T00:33:06;12.98;;;9.20;;
35110;SDS011;21290;50.158;8.658;2023-07-29T00:35:32;16.00;;;8.73;;
35110;SDS011;21290;50.158;8.658;2023-07-29T00:37:59;13.95;;;9.20;;
35110;SDS011;21290;50.158;8.658;2023-07-29T00:40:27;22.75;;;9.50;;
35110;SDS011;21290;50.158;8.658;2023-07-29T00:42:55;11.73;;;9.32;;
35110;SDS011;21290;50.158;8.658;2023-07-29T00:45:21;12.95;;;9.70;;
35110;SDS011;21290;50.158;8.658;2023-07-29T00:50:17;14.07;;;9.70;;
35110;SDS011;21290;50.158;8.658;2023-07-29T00:52:44;15.32;;;9.90;;
35110;SDS011;21290;50.158;8.658;2023-07-29T00:55:11;13.88;;;10.15;;
35110;SDS011;21290;50.158;8.658;2023-07-29T00:57:38;18.50;;;10.70;;
35110;SDS011;21290;50.158;8.658;2023-07-29T01:00:06;14.60;;;10.48;;
35110;SDS011;21290;50.158;8.658;2023-07-29T01:02:35;14.52;;;11.00;;
35110;SDS011;21290;50.158;8.658;2023-07-29T01:05:02;14.70;;;11.40;;
35110;SDS011;21290;50.158;8.658;2023-07-29T01:07:37;17.15;;;11.30;;
35110;SDS011;21290;50.158;8.658;2023-07-29T01:10:07;17.77;;;11.90;;
35110;SDS011;21290;50.158;8.658;2023-07-29T01:12:54;14.32;;;11.48;;
35110;SDS011;21290;50.158;8.658;2023-07-29T01:18:21;16.08;;;12.50;;
35110;SDS011;21290;50.158;8.658;2023-07-29T01:20:58;22.45;;;13.63;;
35110;SDS011;21290;50.158;8.658;2023-07-29T01:26:00;16.70;;;11.43;;
35110;SDS011;21290;50.158;8.658;2023-07-29T01:28:27;16.80;;;11.38;;
35110;SDS011;21290;50.158;8.658;2023-07-29T01:31:05;15.65;;;11.75;;
35110;SDS011;21290;50.158;8.658;2023-07-29T01:33:40;20.90;;;11.73;;
35110;SDS011;21290;50.158;8.658;2023-07-29T01:36:12;18.27;;;11.77;;
35110;SDS011;21290;50.158;8.658;2023-07-29T01:38:44;14.57;;;12.20;;
35110;SDS011;21290;50.158;8.658;2023-07-29T01:41:12;13.93;;;11.27;;
35110;SDS011;21290;50.158;8.658;2023-07-29T01:43:39;15.35;;;11.25;;
35110;SDS011;21290;50.158;8.658;2023-07-29T01:46:10;17.45;;;11.30;;
35110;SDS011;21290;50.158;8.658;2023-07-29T01:48:38;15.98;;;12.00;;
35110;SDS011;21290;50.158;8.658;2023-07-29T01:51:05;18.88;;;13.25;;
35110;SDS011;21290;50.158;8.658;2023-07-29T01:53:32;15.57;;;12.63;;
35110;SDS011;21290;50.158;8.658;2023-07-29T01:55:59;16.52;;;13.38;;
35110;SDS011;21290;50.158;8.658;2023-07-29T01:58:26;20.70;;;13.02;;
35110;SDS011;21290;50.158;8.658;2023-07-29T02:00:52;25.05;;;13.93;;
35110;SDS011;21290;50.158;8.658;2023-07-29T02:03:19;15.70;;;12.65;;
35110;SDS011;21290;50.158;8.658;2023-07-29T02:05:46;16.35;;;13.40;;
35110;SDS011;21290;50.158;8.658;2023-07-29T02:08:13;19.55;;;14.40;;
35110;SDS011;21290;50.158;8.658;2023-07-29T02:10:40;21.30;;;13.73;;
35110;SDS011;21290;50.158;8.658;2023-07-29T02:13:07;21.65;;;13.70;;
35110;SDS011;21290;50.158;8.658;2023-07-29T02:15:33;18.80;;;12.98;;
35110;SDS011;21290;50.158;8.658;2023-07-29T02:18:00;15.50;;;12.70;;
35110;SDS011;21290;50.158;8.658;2023-07-29T02:20:28;14.60;;;12.10;;
35110;SDS011;21290;50.158;8.658;2023-07-29T02:22:54;17.77;;;13.02;;
35110;SDS011;21290;50.158;8.658;2023-07-29T02:25:21;17.92;;;11.63;;
35110;SDS011;21290;50.158;8.658;2023-07-29T02:27:48;16.40;;;11.85;;
35110;SDS011;21290;50.158;8.658;2023-07-29T02:30:14;15.85;;;11.93;;
35110;SDS011;21290;50.158;8.658;2023-07-29T02:32:41;15.80;;;11.35;;
35110;SDS011;21290;50.158;8.658;2023-07-29T02:35:08;19.83;;;11.82;;
35110;SDS011;21290;50.158;8.658;2023-07-29T02:37:35;14.23;;;11.18;;
35110;SDS011;21290;50.158;8.658;2023-07-29T02:40:02;14.20;;;11.00;;
35110;SDS011;21290;50.158;8.658;2023-07-29T02:42:29;16.00;;;10.70;;
35110;SDS011;21290;50.158;8.658;2023-07-29T02:44:56;15.13;;;10.73;;
35110;SDS011;21290;50.158;8.658;2023-07-29T02:47:23;17.90;;;10.52;;
35110;SDS011;21290;50.158;8.658;2023-07-29T02:49:50;16.85;;;11.05;;
35110;SDS011;21290;50.158;8.658;2023-07-29T02:52:16;13.57;;;10.57;;
35110;SDS011;21290;50.158;8.658;2023-07-29T02:54:43;19.33;;;10.43;;
35110;SDS011;21290;50.158;8.658;2023-07-29T02:57:09;19.52;;;10.27;;
35110;SDS011;21290;50.158;8.658;2023-07-29T02:59:36;15.88;;;10.18;;
35110;SDS011;21290;50.158;8.658;2023-07-29T03:02:03;14.88;;;10.30;;
35110;SDS011;21290;50.158;8.658;2023-07-29T03:04:29;14.65;;;10.10;;
35110;SDS011;21290;50.158;8.658;2023-07-29T03:06:59;17.25;;;10.55;;
35110;SDS011;21290;50.158;8.658;2023-07-29T03:09:26;15.40;;;10.65;;
35110;SDS011;21290;50.158;8.658;2023-07-29T03:11:52;13.43;;;9.85;;
35110;SDS011;21290;50.158;8.658;2023-07-29T03:14:20;16.77;;;10.55;;
35110;SDS011;21290;50.158;8.658;2023-07-29T03:16:47;16.77;;;9.90;;
35110;SDS011;21290;50.158;8.658;2023-07-29T03:19:14;13.93;;;9.73;;
35110;SDS011;21290;50.158;8.658;2023-07-29T03:21:41;14.00;;;9.38;;
35110;SDS011;21290;50.158;8.658;2023-07-29T03:24:08;14.10;;;9.18;;
35110;SDS011;21290;50.158;8.658;2023-07-29T03:26:34;14.32;;;9.50;;
35110;SDS011;21290;50.158;8.658;2023-07-29T03:29:01;15.43;;;9.32;;
35110;SDS011;21290;50.158;8.658;2023-07-29T03:31:28;10.43;;;7.78;;
35110;SDS011;21290;50.158;8.658;2023-07-29T03:33:55;16.27;;;8.27;;
35110;SDS011;21290;50.158;8.658;2023-07-29T03:36:21;10.23;;;7.88;;
35110;SDS011;21290;50.158;8.658;2023-07-29T03:38:48;11.57;;;8.00;;
35110;SDS011;21290;50.158;8.658;2023-07-29T03:41:14;10.95;;;7.88;;
35110;SDS011;21290;50.158;8.658;2023-07-29T03:43:41;8.90;;;7.55;;
35110;SDS011;21290;50.158;8.658;2023-07-29T03:46:08;9.25;;;7.28;;
35110;SDS011;21290;50.158;8.658;2023-07-29T03:48:37;12.70;;;7.90;;
35110;SDS011;21290;50.158;8.658;2023-07-29T03:51:04;11.63;;;8.35;;
35110;SDS011;21290;50.158;8.658;2023-07-29T03:53:31;10.65;;;9.00;;
35110;SDS011;21290;50.158;8.658;2023-07-29T03:55:57;14.82;;;8.95;;
35110;SDS011;21290;50.158;8.658;2023-07-29T03:58:24;12.57;;;8.75;;
35110;SDS011;21290;50.158;8.658;2023-07-29T04:00:51;11.63;;;8.43;;
35110;SDS011;21290;50.158;8.658;2023-07-29T04:03:17;13.07;;;9.23;;
35110;SDS011;21290;50.158;8.658;2023-07-29T04:05:44;10.23;;;8.77;;
35110;SDS011;21290;50.158;8.658;2023-07-29T04:08:11;11.65;;;8.93;;
35110;SDS011;21290;50.158;8.658;2023-07-29T04:10:37;13.30;;;9.90;;
35110;SDS011;21290;50.158;8.658;2023-07-29T04:13:04;12.10;;;9.95;;
35110;SDS011;21290;50.158;8.658;2023-07-29T04:15:31;11.50;;;9.43;;
35110;SDS011;21290;50.158;8.658;2023-07-29T04:17:57;15.38;;;10.07;;
35110;SDS011;21290;50.158;8.658;2023-07-29T04:20:24;15.63;;;9.65;;
35110;SDS011;21290;50.158;8.658;2023-07-29T04:22:51;12.98;;;11.15;;
35110;SDS011;21290;50.158;8.658;2023-07-29T04:25:18;14.65;;;10.80;;
35110;SDS011;21290;50.158;8.658;2023-07-29T04:27:44;16.38;;;10.73;;
35110;SDS011;21290;50.158;8.658;2023-07-29T04:30:11;15.38;;;12.00;;
35110;SDS011;21290;50.158;8.658;2023-07-29T04:32:38;14.93;;;12.40;;
35110;SDS011;21290;50.158;8.658;2023-07-29T04:35:05;18.48;;;12.82;;
35110;SDS011;21290;50.158;8.658;2023-07-29T04:37:32;15.80;;;12.35;;
35110;SDS011;21290;50.158;8.658;2023-07-29T04:39:58;15.95;;;11.88;;
35110;SDS011;21290;50.158;8.658;2023-07-29T04:42:26;15.13;;;12.70;;
35110;SDS011;21290;50.158;8.658;2023-07-29T04:44:52;17.75;;;12.70;;
35110;SDS011;21290;50.158;8.658;2023-07-29T04:47:19;19.00;;;13.13;;
35110;SDS011;21290;50.158;8.658;2023-07-29T04:49:46;19.33;;;12.68;;
35110;SDS011;21290;50.158;8.658;2023-07-29T04:52:12;18.65;;;13.52;;
35110;SDS011;21290;50.158;8.658;2023-07-29T04:54:39;17.83;;;13.32;;
35110;SDS011;21290;50.158;8.658;2023-07-29T04:57:05;18.83;;;14.27;;
35110;SDS011;21290;50.158;8.658;2023-07-29T04:59:32;17.85;;;14.30;;
35110;SDS011;21290;50.158;8.658;2023-07-29T05:01:59;19.30;;;14.18;;
35110;SDS011;21290;50.158;8.658;2023-07-29T05:04:25;22.23;;;15.43;;
35110;SDS011;21290;50.158;8.658;2023-07-29T05:06:52;17.52;;;15.30;;
35110;SDS011;21290;50.158;8.658;2023-07-29T05:09:19;21.85;;;15.90;;
35110;SDS011;21290;50.158;8.658;2023-07-29T05:11:46;24.35;;;16.63;;
35110;SDS011;21290;50.158;8.658;2023-07-29T05:14:13;20.20;;;15.90;;
35110;SDS011;21290;50.158;8.658;2023-07-29T05:16:41;18.13;;;15.65;;
35110;SDS011;21290;50.158;8.658;2023-07-29T05:19:08;19.63;;;15.75;;
35110;SDS011;21290;50.158;8.658;2023-07-29T05:21:35;16.65;;;14.82;;
35110;SDS011;21290;50.158;8.658;2023-07-29T05:24:02;19.25;;;15.25;;
35110;SDS011;21290;50.158;8.658;2023-07-29T05:26:29;19.27;;;16.23;;
35110;SDS011;21290;50.158;8.658;2023-07-29T05:28:56;19.55;;;15.18;;
35110;SDS011;21290;50.158;8.658;2023-07-29T05:31:23;21.48;;;15.60;;
35110;SDS011;21290;50.158;8.658;2023-07-29T05:33:49;21.23;;;15.68;;
35110;SDS011;21290;50.158;8.658;2023-07-29T05:36:16;23.42;;;15.65;;
35110;SDS011;21290;50.158;8.658;2023-07-29T05:38:42;16.95;;;14.52;;
35110;SDS011;21290;50.158;8.658;2023-07-29T05:41:09;19.33;;;14.98;;
35110;SDS011;21290;50.158;8.658;2023-07-29T05:43:36;15.57;;;14.07;;
35110;SDS011;21290;50.158;8.658;2023-07-29T05:46:03;16.15;;;14.45;;
35110;SDS011;21290;50.158;8.658;2023-07-29T05:48:30;21.98;;;14.25;;
35110;SDS011;21290;50.158;8.658;2023-07-29T05:50:56;17.52;;;14.05;;
35110;SDS011;21290;50.158;8.658;2023-07-29T05:53:23;17.35;;;14.43;;
35110;SDS011;21290;50.158;8.658;2023-07-29T05:55:50;19.20;;;14.45;;
35110;SDS011;21290;50.158;8.658;2023-07-29T05:58:16;17.27;;;14.02;;
35110;SDS011;21290;50.158;8.658;2023-07-29T06:00:43;17.42;;;14.85;;
35110;SDS011;21290;50.158;8.658;2023-07-29T06:03:10;15.13;;;13.52;;
35110;SDS011;21290;50.158;8.658;2023-07-29T06:05:36;22.65;;;13.98;;
35110;SDS011;21290;50.158;8.658;2023-07-29T06:08:03;15.95;;;13.57;;
35110;SDS011;21290;50.158;8.658;2023-07-29T06:10:30;16.38;;;13.35;;
35110;SDS011;21290;50.158;8.658;2023-07-29T06:12:56;17.88;;;14.43;;
35110;SDS011;21290;50.158;8.658;2023-07-29T06:15:23;17.70;;;14.15;;
35110;SDS011;21290;50.158;8.658;2023-07-29T06:17:50;16.08;;;13.50;;
35110;SDS011;21290;50.158;8.658;2023-07-29T06:20:19;15.05;;;13.45;;
35110;SDS011;21290;50.158;8.658;2023-07-29T06:22:46;14.57;;;13.10;;
35110;SDS011;21290;50.158;8.658;2023-07-29T06:25:13;14.30;;;12.82;;
35110;SDS011;21290;50.158;8.658;2023-07-29T06:27:39;15.07;;;13.45;;
35110;SDS011;21290;50.158;8.658;2023-07-29T06:30:06;16.02;;;12.85;;
35110;SDS011;21290;50.158;8.658;2023-07-29T06:32:33;14.15;;;12.68;;
35110;SDS011;21290;50.158;8.658;2023-07-29T06:35:00;23.27;;;15.20;;
35110;SDS011;21290;50.158;8.658;2023-07-29T06:37:27;16.08;;;14.35;;
35110;SDS011;21290;50.158;8.658;2023-07-29T06:39:54;22.63;;;16.42;;
35110;SDS011;21290;50.158;8.658;2023-07-29T06:42:20;22.50;;;16.73;;
35110;SDS011;21290;50.158;8.658;2023-07-29T06:44:47;17.95;;;15.27;;
35110;SDS011;21290;50.158;8.658;2023-07-29T06:47:14;18.83;;;15.07;;
35110;SDS011;21290;50.158;8.658;2023-07-29T06:49:40;16.27;;;14.57;;
35110;SDS011;21290;50.158;8.658;2023-07-29T06:52:07;16.23;;;14.45;;
35110;SDS011;21290;50.158;8.658;2023-07-29T06:54:34;14.93;;;13.20;;
35110;SDS011;21290;50.158;8.658;2023-07-29T06:57:00;16.15;;;12.98;;
35110;SDS011;21290;50.158;8.658;2023-07-29T06:59:27;14.55;;;12.50;;
35110;SDS011;21290;50.158;8.658;2023-07-29T07:01:54;14.25;;;12.75;;
35110;SDS011;21290;50.158;8.658;2023-07-29T07:04:21;12.60;;;10.82;;
35110;SDS011;21290;50.158;8.658;2023-07-29T07:06:47;12.27;;;9.77;;
35110;SDS011;21290;50.158;8.658;2023-07-29T07:09:14;12.18;;;9.20;;
35110;SDS011;21290;50.158;8.658;2023-07-29T07:11:40;13.15;;;9.90;;
35110;SDS011;21290;50.158;8.658;2023-07-29T07:14:07;13.60;;;10.35;;
35110;SDS011;21290;50.158;8.658;2023-07-29T07:16:34;13.07;;;10.07;;
35110;SDS011;21290;50.158;8.658;2023-07-29T07:21:29;19.52;;;12.63;;
35110;SDS011;21290;50.158;8.658;2023-07-29T07:23:56;16.70;;;12.75;;
35110;SDS011;21290;50.158;8.658;2023-07-29T07:26:23;17.75;;;12.88;;
35110;SDS011;21290;50.158;8.658;2023-07-29T07:28:49;15.23;;;13.52;;
35110;SDS011;21290;50.158;8.658;2023-07-29T07:31:17;16.40;;;13.65;;
35110;SDS011;21290;50.158;8.658;2023-07-29T07:33:46;17.27;;;14.48;;
35110;SDS011;21290;50.158;8.658;2023-07-29T07:36:12;18.17;;;13.90;;
35110;SDS011;21290;50.158;8.658;2023-07-29T07:38:39;18.40;;;14.27;;
35110;SDS011;21290;50.158;8.658;2023-07-29T07:41:06;18.48;;;14.45;;
35110;SDS011;21290;50.158;8.658;2023-07-29T07:43:32;20.02;;;14.32;;
35110;SDS011;21290;50.158;8.658;2023-07-29T07:45:59;19.25;;;14.18;;
35110;SDS011;21290;50.158;8.658;2023-07-29T07:48:27;20.27;;;13.65;;
35110;SDS011;21290;50.158;8.658;2023-07-29T07:50:54;16.65;;;14.02;;
35110;SDS011;21290;50.158;8.658;2023-07-29T07:53:21;15.18;;;13.57;;
35110;SDS011;21290;50.158;8.658;2023-07-29T07:55:47;15.35;;;13.75;;
35110;SDS011;21290;50.158;8.658;2023-07-29T07:58:14;16.58;;;14.73;;
35110;SDS011;21290;50.158;8.658;2023-07-29T08:00:41;18.42;;;14.02;;
35110;SDS011;21290;50.158;8.658;2023-07-29T08:03:07;15.50;;;13.70;;
35110;SDS011;21290;50.158;8.658;2023-07-29T08:05:34;14.52;;;13.13;;
35110;SDS011;21290;50.158;8.658;2023-07-29T08:08:01;14.35;;;12.95;;
35110;SDS011;21290;50.158;8.658;2023-07-29T08:10:28;14.15;;;12.65;;
35110;SDS011;21290;50.158;8.658;2023-07-29T08:12:54;13.68;;;12.38;;
35110;SDS011;21290;50.158;8.658;2023-07-29T08:15:21;17.88;;;14.30;;
35110;SDS011;21290;50.158;8.658;2023-07-29T08:17:47;13.70;;;11.82;;
35110;SDS011;21290;50.158;8.658;2023-07-29T08:20:14;13.65;;;11.93;;
35110;SDS011;21290;50.158;8.658;2023-07-29T08:22:41;11.73;;;9.50;;
35110;SDS011;21290;50.158;8.658;2023-07-29T08:25:08;14.38;;;7.18;;
35110;SDS011;21290;50.158;8.658;2023-07-29T08:27:34;9.80;;;5.72;;
35110;SDS011;21290;50.158;8.658;2023-07-29T08:30:01;8.13;;;4.90;;
35110;SDS011;21290;50.158;8.658;2023-07-29T08:32:28;6.05;;;4.95;;
35110;SDS011;21290;50.158;8.658;2023-07-29T08:34:55;5.22;;;4.25;;
35110;SDS011;21290;50.158;8.658;2023-07-29T08:37:21;5.78;;;3.40;;
35110;SDS011;21290;50.158;8.658;2023-07-29T08:39:48;6.30;;;3.15;;
35110;SDS011;21290;50.158;8.658;2023-07-29T08:42:15;3.42;;;2.70;;
35110;SDS011;21290;50.158;8.658;2023-07-29T08:44:46;5.65;;;2.83;;
35110;SDS011;21290;50.158;8.658;2023-07-29T08:47:15;4.30;;;2.35;;
35110;SDS011;21290;50.158;8.658;2023-07-29T08:49:43;4.38;;;2.65;;
35110;SDS011;21290;50.158;8.658;2023-07-29T08:52:11;6.03;;;2.70;;
35110;SDS011;21290;50.158;8.658;2023-07-29T08:54:39;5.37;;;2.53;;
35110;SDS011;21290;50.158;8.658;2023-07-29T08:57:06;4.25;;;2.10;;
35110;SDS011;21290;50.158;8.658;2023-07-29T08:59:33;3.05;;;1.70;;
35110;SDS011;21290;50.158;8.658;2023-07-29T09:02:00;2.58;;;1.77;;
35110;SDS011;21290;50.158;8.658;2023-07-29T09:04:27;3.05;;;1.73;;
35110;SDS011;21290;50.158;8.658;2023-07-29T09:06:55;4.60;;;1.77;;
35110;SDS011;21290;50.158;8.658;2023-07-29T09:09:22;3.38;;;1.48;;
35110;SDS011;21290;50.158;8.658;2023-07-29T09:11:49;6.50;;;2.00;;
35110;SDS011;21290;50.158;8.658;2023-07-29T09:14:16;2.90;;;1.50;;
35110;SDS011;21290;50.158;8.658;2023-07-29T09:16:43;2.90;;;1.48;;
35110;SDS011;21290;50.158;8.658;2023-07-29T09:19:10;4.65;;;1.30;;
35110;SDS011;21290;50.158;8.658;2023-07-29T09:21:40;4.57;;;1.35;;
35110;SDS011;21290;50.158;8.658;2023-07-29T09:24:07;4.97;;;1.40;;
35110;SDS011;21290;50.158;8.658;2023-07-29T09:26:34;4.05;;;1.10;;
35110;SDS011;21290;50.158;8.658;2023-07-29T09:29:02;2.10;;;1.13;;
35110;SDS011;21290;50.158;8.658;2023-07-29T09:31:29;1.35;;;0.98;;
35110;SDS011;21290;50.158;8.658;2023-07-29T09:33:59;6.93;;;1.05;;
35110;SDS011;21290;50.158;8.658;2023-07-29T09:36:29;3.50;;;1.10;;
35110;SDS011;21290;50.158;8.658;2023-07-29T09:38:57;4.65;;;1.15;;
35110;SDS011;21290;50.158;8.658;2023-07-29T09:41:25;1.35;;;0.93;;
35110;SDS011;21290;50.158;8.658;2023-07-29T09:43:56;6.28;;;1.15;;
35110;SDS011;21290;50.158;8.658;2023-07-29T09:46:37;0.95;;;0.70;;
35110;SDS011;21290;50.158;8.658;2023-07-29T09:49:05;3.17;;;1.15;;
35110;SDS011;21290;50.158;8.658;2023-07-29T09:51:37;4.13;;;0.80;;
35110;SDS011;21290;50.158;8.658;2023-07-29T09:54:05;1.15;;;0.60;;
35110;SDS011;21290;50.158;8.658;2023-07-29T09:56:32;1.10;;;0.80;;
35110;SDS011;21290;50.158;8.658;2023-07-29T09:58:59;2.75;;;0.80;;
35110;SDS011;21290;50.158;8.658;2023-07-29T10:01:30;4.80;;;0.73;;
35110;SDS011;21290;50.158;8.658;2023-07-29T10:03:58;2.00;;;0.90;;
35110;SDS011;21290;50.158;8.658;2023-07-29T10:08:53;1.02;;;0.70;;
35110;SDS011;21290;50.158;8.658;2023-07-29T10:11:21;1.27;;;0.63;;
35110;SDS011;21290;50.158;8.658;2023-07-29T10:13:48;1.63;;;0.90;;
35110;SDS011;21290;50.158;8.658;2023-07-29T10:16:32;2.22;;;0.60;;
35110;SDS011;21290;50.158;8.658;2023-07-29T10:21:28;0.98;;;0.88;;
35110;SDS011;21290;50.158;8.658;2023-07-29T10:23:56;1.40;;;0.93;;
35110;SDS011;21290;50.158;8.658;2023-07-29T10:26:29;2.47;;;0.70;;
35110;SDS011;21290;50.158;8.658;2023-07-29T10:28:57;0.80;;;0.50;;
35110;SDS011;21290;50.158;8.658;2023-07-29T10:31:31;1.95;;;0.57;;
35110;SDS011;21290;50.158;8.658;2023-07-29T10:33:58;0.63;;;0.50;;
35110;SDS011;21290;50.158;8.658;2023-07-29T10:36:25;2.97;;;0.70;;
35110;SDS011;21290;50.158;8.658;2023-07-29T10:38:53;1.63;;;0.90;;
35110;SDS011;21290;50.158;8.658;2023-07-29T10:41:19;1.38;;;0.80;;
35110;SDS011;21290;50.158;8.658;2023-07-29T10:43:46;1.15;;;0.60;;
35110;SDS011;21290;50.158;8.658;2023-07-29T10:46:20;2.28;;;1.00;;
35110;SDS011;21290;50.158;8.658;2023-07-29T10:48:55;15.85;;;2.13;;
35110;SDS011;21290;50.158;8.658;2023-07-29T10:54:03;1.52;;;0.90;;
35110;SDS011;21290;50.158;8.658;2023-07-29T10:56:36;6.07;;;1.00;;
35110;SDS011;21290;50.158;8.658;2023-07-29T11:01:45;1.08;;;0.77;;
35110;SDS011;21290;50.158;8.658;2023-07-29T11:04:25;1.50;;;1.05;;
35110;SDS011;21290;50.158;8.658;2023-07-29T11:09:39;2.72;;;1.35;;
35110;SDS011;21290;50.158;8.658;2023-07-29T11:15:26;1.70;;;1.20;;
35110;SDS011;21290;50.158;8.658;2023-07-29T11:20:26;1.83;;;1.20;;
35110;SDS011;21290;50.158;8.658;2023-07-29T11:22:55;1.45;;;1.02;;
35110;SDS011;21290;50.158;8.658;2023-07-29T11:25:23;2.87;;;1.40;;
35110;SDS011;21290;50.158;8.658;2023-07-29T11:27:55;1.92;;;1.10;;
35110;SDS011;21290;50.158;8.658;2023-07-29T11:32:53;4.63;;;1.13;;
35110;SDS011;21290;50.158;8.658;2023-07-29T11:37:49;1.00;;;0.70;;
35110;SDS011;21290;50.158;8.658;2023-07-29T11:40:17;1.77;;;0.93;;
35110;SDS011;21290;50.158;8.658;2023-07-29T11:42:45;0.77;;;0.68;;
35110;SDS011;21290;50.158;8.658;2023-07-29T11:45:13;1.85;;;0.63;;
35110;SDS011;21290;50.158;8.658;2023-07-29T11:47:43;0.93;;;0.80;;
35110;SDS011;21290;50.158;8.658;2023-07-29T11:50:11;3.97;;;0.90;;
35110;SDS011;21290;50.158;8.658;2023-07-29T11:52:42;1.75;;;1.17;;
35110;SDS011;21290;50.158;8.658;2023-07-29T11:57:38;0.70;;;0.70;;
35110;SDS011;21290;50.158;8.658;2023-07-29T12:00:06;3.00;;;1.10;;
35110;SDS011;21290;50.158;8.658;2023-07-29T12:02:36;1.17;;;1.08;;
35110;SDS011;21290;50.158;8.658;2023-07-29T12:05:08;3.17;;;1.20;;
35110;SDS011;21290;50.158;8.658;2023-07-29T12:07:38;1.67;;;1.10;;
35110;SDS011;21290;50.158;8.658;2023-07-29T12:10:05;1.15;;;0.80;;
35110;SDS011;21290;50.158;8.658;2023-07-29T12:12:33;2.83;;;1.17;;
35110;SDS011;21290;50.158;8.658;2023-07-29T12:15:03;4.18;;;1.00;;
35110;SDS011;21290;50.158;8.658;2023-07-29T12:17:31;1.10;;;1.00;;
35110;SDS011;21290;50.158;8.658;2023-07-29T12:20:04;8.52;;;2.22;;
35110;SDS011;21290;50.158;8.658;2023-07-29T12:22:35;5.32;;;4.10;;
35110;SDS011;21290;50.158;8.658;2023-07-29T12:25:02;2.10;;;1.80;;
35110;SDS011;21290;50.158;8.658;2023-07-29T12:27:30;1.27;;;1.17;;
35110;SDS011;21290;50.158;8.658;2023-07-29T12:30:00;4.18;;;2.20;;
35110;SDS011;21290;50.158;8.658;2023-07-29T12:32:29;3.10;;;1.40;;
35110;SDS011;21290;50.158;8.658;2023-07-29T12:34:56;1.75;;;1.45;;
35110;SDS011;21290;50.158;8.658;2023-07-29T12:37:30;1.90;;;1.65;;
35110;SDS011;21290;50.158;8.658;2023-07-29T12:39:58;1.40;;;1.30;;
35110;SDS011;21290;50.158;8.658;2023-07-29T12:42:24;1.63;;;1.30;;
35110;SDS011;21290;50.158;8.658;2023-07-29T12:44:51;2.63;;;1.50;;
35110;SDS011;21290;50.158;8.658;2023-07-29T12:47:18;6.95;;;1.13;;
35110;SDS011;21290;50.158;8.658;2023-07-29T12:49:44;5.10;;;1.50;;
35110;SDS011;21290;50.158;8.658;2023-07-29T12:52:11;1.52;;;1.42;;
35110;SDS011;21290;50.158;8.658;2023-07-29T12:54:38;2.10;;;1.17;;
35110;SDS011;21290;50.158;8.658;2023-07-29T12:57:06;5.03;;;1.50;;
35110;SDS011;21290;50.158;8.658;2023-07-29T12:59:32;4.05;;;1.50;;
35110;SDS011;21290;50.158;8.658;2023-07-29T13:01:59;3.58;;;1.30;;
35110;SDS011;21290;50.158;8.658;2023-07-29T13:04:26;1.77;;;1.10;;
35110;SDS011;21290;50.158;8.658;2023-07-29T13:06:52;1.65;;;1.35;;
35110;SDS011;21290;50.158;8.658;2023-07-29T13:09:19;2.10;;;1.45;;
35110;SDS011;21290;50.158;8.658;2023-07-29T13:11:46;4.97;;;1.38;;
35110;SDS011;21290;50.158;8.658;2023-07-29T13:14:12;1.40;;;1.27;;
35110;SDS011;21290;50.158;8.658;2023-07-29T13:16:39;1.65;;;1.17;;
35110;SDS011;21290;50.158;8.658;2023-07-29T13:19:06;2.80;;;1.20;;
35110;SDS011;21290;50.158;8.658;2023-07-29T13:21:33;1.45;;;1.20;;
35110;SDS011;21290;50.158;8.658;2023-07-29T13:23:59;2.45;;;1.20;;
35110;SDS011;21290;50.158;8.658;2023-07-29T13:26:26;3.25;;;1.40;;
35110;SDS011;21290;50.158;8.658;2023-07-29T13:28:53;2.33;;;1.35;;
35110;SDS011;21290;50.158;8.658;2023-07-29T13:31:21;2.75;;;1.20;;
35110;SDS011;21290;50.158;8.658;2023-07-29T13:33:48;1.50;;;0.93;;
35110;SDS011;21290;50.158;8.658;2023-07-29T13:36:15;1.70;;;1.50;;
35110;SDS011;21290;50.158;8.658;2023-07-29T13:38:41;3.97;;;1.33;;
35110;SDS011;21290;50.158;8.658;2023-07-29T13:41:08;1.60;;;1.00;;
35110;SDS011;21290;50.158;8.658;2023-07-29T13:43:34;2.00;;;1.67;;
35110;SDS011;21290;50.158;8.658;2023-07-29T13:46:01;3.05;;;1.10;;
35110;SDS011;21290;50.158;8.658;2023-07-29T13:48:28;3.60;;;1.55;;
35110;SDS011;21290;50.158;8.658;2023-07-29T13:50:55;2.70;;;2.05;;
35110;SDS011;21290;50.158;8.658;2023-07-29T13:53:21;5.65;;;1.20;;
35110;SDS011;21290;50.158;8.658;2023-07-29T13:55:48;3.38;;;1.38;;
35110;SDS011;21290;50.158;8.658;2023-07-29T13:58:17;4.38;;;1.40;;
35110;SDS011;21290;50.158;8.658;2023-07-29T14:00:43;2.35;;;1.40;;
35110;SDS011;21290;50.158;8.658;2023-07-29T14:03:10;3.30;;;1.30;;
35110;SDS011;21290;50.158;8.658;2023-07-29T14:05:37;14.80;;;2.72;;
35110;SDS011;21290;50.158;8.658;2023-07-29T14:08:03;2.17;;;1.20;;
35110;SDS011;21290;50.158;8.658;2023-07-29T14:10:30;3.42;;;1.10;;
35110;SDS011;21290;50.158;8.658;2023-07-29T14:12:57;5.13;;;1.45;;
35110;SDS011;21290;50.158;8.658;2023-07-29T14:15:23;2.50;;;1.10;;
35110;SDS011;21290;50.158;8.658;2023-07-29T14:17:50;2.03;;;1.23;;
35110;SDS011;21290;50.158;8.658;2023-07-29T14:20:16;1.45;;;1.35;;
35110;SDS011;21290;50.158;8.658;2023-07-29T14:22:47;1.67;;;1.20;;
35110;SDS011;21290;50.158;8.658;2023-07-29T14:25:14;3.13;;;1.48;;
35110;SDS011;21290;50.158;8.658;2023-07-29T14:27:40;1.20;;;1.08;;
35110;SDS011;21290;50.158;8.658;2023-07-29T14:30:07;1.50;;;1.40;;
35110;SDS011;21290;50.158;8.658;2023-07-29T14:32:34;2.05;;;1.35;;
35110;SDS011;21290;50.158;8.658;2023-07-29T14:35:01;2.53;;;1.38;;
35110;SDS011;21290;50.158;8.658;2023-07-29T14:37:30;2.80;;;1.20;;
35110;SDS011;21290;50.158;8.658;2023-07-29T14:39:57;2.10;;;1.70;;
35110;SDS011;21290;50.158;8.658;2023-07-29T14:42:24;4.85;;;1.35;;
35110;SDS011;21290;50.158;8.658;2023-07-29T14:44:51;2.40;;;1.20;;
35110;SDS011;21290;50.158;8.658;2023-07-29T14:47:18;1.58;;;1.25;;
35110;SDS011;21290;50.158;8.658;2023-07-29T14:49:44;8.15;;;1.63;;
35110;SDS011;21290;50.158;8.658;2023-07-29T14:52:11;4.68;;;2.63;;
35110;SDS011;21290;50.158;8.658;2023-07-29T14:54:38;4.25;;;2.08;;
35110;SDS011;21290;50.158;8.658;2023-07-29T14:57:05;1.67;;;1.42;;
35110;SDS011;21290;50.158;8.658;2023-07-29T14:59:33;1.63;;;1.30;;
35110;SDS011;21290;50.158;8.658;2023-07-29T15:01:59;1.48;;;1.38;;
35110;SDS011;21290;50.158;8.658;2023-07-29T15:04:26;1.70;;;1.30;;
35110;SDS011;21290;50.158;8.658;2023-07-29T15:06:52;1.95;;;1.17;;
35110;SDS011;21290;50.158;8.658;2023-07-29T15:09:20;1.55;;;1.40;;
35110;SDS011;21290;50.158;8.658;2023-07-29T15:11:46;1.27;;;1.10;;
35110;SDS011;21290;50.158;8.658;2023-07-29T15:14:13;3.78;;;1.55;;